createdAt,value
2023-04-02T00:01:51.022Z,12.10
2023-04-02T00:04:38.224Z,12.80
2023-04-02T00:07:33.802Z,12.70
2023-04-02T00:10:32.140Z,12.20
2023-04-02T00:13:08.083Z,13.20
2023-04-02T00:16:03.453Z,12.80
2023-04-02T00:18:51.540Z,12.90
2023-04-02T00:21:47.379Z,12.90
2023-04-02T00:24:41.632Z,11.70
2023-04-02T00:27:25.777Z,11.70
2023-04-02T00:30:18.734Z,10.70
2023-04-02T00:33:17.242Z,10.90
2023-04-02T00:36:11.707Z,11.00
2023-04-02T00:39:09.064Z,9.50
2023-04-02T00:41:54.854Z,9.60
2023-04-02T00:44:43.288Z,8.30
2023-04-02T00:47:27.361Z,8.80
2023-04-02T00:50:22.031Z,8.60
2023-04-02T00:53:23.351Z,8.40
2023-04-02T00:56:22.498Z,8.50
2023-04-02T00:59:26.343Z,7.20
2023-04-02T01:02:02.816Z,7.70
2023-04-02T01:04:58.180Z,7.90
2023-04-02T01:08:11.819Z,7.40
2023-04-02T01:11:01.846Z,7.20
2023-04-02T01:14:02.260Z,7.50
2023-04-02T01:16:50.672Z,7.10
2023-04-02T01:20:12.063Z,7.90
2023-04-02T01:23:09.763Z,9.60
2023-04-02T01:26:01.248Z,8.10
2023-04-02T01:29:00.136Z,9.60
2023-04-02T01:31:48.393Z,7.80
2023-04-02T01:34:37.125Z,8.00
2023-04-02T01:37:49.643Z,8.10
2023-04-02T01:40:40.763Z,10.50
2023-04-02T01:43:42.041Z,9.20
2023-04-02T01:46:36.932Z,8.50
2023-04-02T01:49:23.699Z,8.30
2023-04-02T01:52:27.042Z,8.20
2023-04-02T01:55:26.050Z,8.00
2023-04-02T01:58:11.451Z,7.70
2023-04-02T02:01:07.506Z,7.20
2023-04-02T02:04:01.205Z,7.30
2023-04-02T02:06:48.564Z,7.00
2023-04-02T02:09:41.892Z,6.20
2023-04-02T02:12:35.258Z,6.40
2023-04-02T02:15:28.033Z,5.80
2023-04-02T02:18:24.693Z,6.10
2023-04-02T02:21:29.922Z,5.90
2023-04-02T02:24:26.813Z,5.40
2023-04-02T02:27:45.509Z,5.60
2023-04-02T02:30:43.806Z,5.10
2023-04-02T02:33:35.550Z,4.90
2023-04-02T02:36:34.134Z,5.20
2023-04-02T02:39:25.794Z,4.40
2023-04-02T02:42:27.292Z,5.00
2023-04-02T02:45:26.596Z,4.60
2023-04-02T02:48:11.438Z,4.00
2023-04-02T02:51:09.274Z,4.40
2023-04-02T02:54:08.036Z,4.60
2023-04-02T02:56:59.060Z,4.70
2023-04-02T02:59:54.244Z,4.60
2023-04-02T03:02:49.782Z,5.10
2023-04-02T03:05:43.876Z,4.80
2023-04-02T03:08:40.551Z,4.60
2023-04-02T03:11:41.465Z,5.00
2023-04-02T03:14:39.728Z,6.10
2023-04-02T03:17:38.196Z,6.20
2023-04-02T03:20:40.586Z,5.30
2023-04-02T03:23:37.787Z,5.20
2023-04-02T03:26:17.709Z,5.60
2023-04-02T03:29:17.746Z,6.00
2023-04-02T03:32:18.371Z,5.90
2023-04-02T03:35:20.635Z,6.30
2023-04-02T03:38:09.397Z,6.50
2023-04-02T03:41:03.502Z,7.00
2023-04-02T03:43:48.082Z,8.20
2023-04-02T03:46:58.544Z,7.50
2023-04-02T03:49:56.590Z,7.50
2023-04-02T03:52:49.797Z,7.20
2023-04-02T03:55:44.262Z,7.50
2023-04-02T03:58:45.144Z,7.70
2023-04-02T04:01:44.873Z,8.10
2023-04-02T04:04:43.889Z,7.50
2023-04-02T04:07:41.498Z,8.60
2023-04-02T04:10:36.246Z,14.20
2023-04-02T04:13:30.248Z,19.80
2023-04-02T04:16:29.230Z,17.80
2023-04-02T04:19:30.176Z,16.40
2023-04-02T04:22:30.454Z,16.70
2023-04-02T04:25:30.207Z,16.50
2023-04-02T04:28:28.040Z,26.90
2023-04-02T04:31:31.365Z,21.70
2023-04-02T04:34:31.478Z,44.10
2023-04-02T04:37:33.685Z,24.50
2023-04-02T04:40:28.580Z,18.30
2023-04-02T04:43:20.096Z,11.40
2023-04-02T04:46:11.727Z,10.40
2023-04-02T04:48:54.035Z,11.00
2023-04-02T04:51:44.195Z,10.10
2023-04-02T04:54:29.426Z,10.30
2023-04-02T04:57:31.163Z,9.20
2023-04-02T05:00:28.295Z,9.50
2023-04-02T05:03:22.398Z,9.50
2023-04-02T05:06:15.101Z,8.90
2023-04-02T05:09:14.731Z,8.90
2023-04-02T05:12:18.338Z,8.20
2023-04-02T05:15:18.427Z,8.10
2023-04-02T05:18:25.088Z,8.50
2023-04-02T05:21:24.150Z,8.70
2023-04-02T05:24:43.518Z,10.40
2023-04-02T05:27:43.619Z,8.30
2023-04-02T05:30:46.900Z,7.70
2023-04-02T05:33:41.089Z,7.50
2023-04-02T05:36:34.655Z,7.10
2023-04-02T05:39:12.444Z,6.90
2023-04-02T05:42:05.696Z,6.90
2023-04-02T05:45:19.344Z,5.40
2023-04-02T05:48:06.083Z,5.90
2023-04-02T05:50:55.626Z,4.50
2023-04-02T05:53:38.247Z,5.30
2023-04-02T05:56:38.819Z,5.00
2023-04-02T05:59:22.954Z,4.90
2023-04-02T06:02:03.097Z,7.90
2023-04-02T06:04:48.021Z,9.20
2023-04-02T06:07:52.320Z,6.00
2023-04-02T06:10:36.704Z,5.20
2023-04-02T06:13:17.765Z,5.90
2023-04-02T06:16:14.587Z,9.00
2023-04-02T06:18:50.974Z,12.30
2023-04-02T06:21:50.027Z,7.70
2023-04-02T06:24:40.278Z,15.40
2023-04-02T06:27:25.225Z,10.70
2023-04-02T06:30:23.736Z,7.20
2023-04-02T06:33:17.279Z,7.00
2023-04-02T06:36:13.042Z,7.80
2023-04-02T06:39:12.715Z,7.70
2023-04-02T06:42:04.775Z,8.20
2023-04-02T06:45:22.636Z,10.90
2023-04-02T06:48:35.518Z,10.60
2023-04-02T06:51:29.285Z,9.90
2023-04-02T06:54:22.697Z,9.00
2023-04-02T06:57:16.362Z,7.40
2023-04-02T07:00:37.264Z,7.30
2023-04-02T07:03:32.933Z,5.00
2023-04-02T07:06:25.364Z,5.00
2023-04-02T07:09:11.011Z,5.80
2023-04-02T07:12:04.246Z,7.90
2023-04-02T07:14:57.748Z,6.20
2023-04-02T07:17:51.097Z,5.50
2023-04-02T07:20:44.314Z,5.10
2023-04-02T07:23:21.811Z,6.00
2023-04-02T07:26:20.089Z,5.20
2023-04-02T07:28:57.790Z,5.00
2023-04-02T07:31:42.131Z,4.20
2023-04-02T07:34:34.646Z,4.90
2023-04-02T07:37:27.865Z,4.80
2023-04-02T07:40:04.105Z,5.30
2023-04-02T07:42:49.753Z,3.80
2023-04-02T07:45:37.493Z,5.10
2023-04-02T07:48:23.504Z,4.10
2023-04-02T07:51:21.562Z,5.20
2023-04-02T07:54:10.481Z,5.60
2023-04-02T07:56:43.305Z,7.30
2023-04-02T07:59:19.551Z,5.10
2023-04-02T08:02:06.047Z,6.10
2023-04-02T08:04:59.162Z,6.70
2023-04-02T08:07:42.977Z,7.80
2023-04-02T08:10:26.695Z,6.60
2023-04-02T08:13:19.738Z,7.50
2023-04-02T08:15:54.869Z,5.90
2023-04-02T08:18:48.014Z,5.10
2023-04-02T08:21:42.482Z,13.20
2023-04-02T08:24:35.601Z,5.30
2023-04-02T08:27:15.128Z,4.50
2023-04-02T08:30:13.875Z,4.00
2023-04-02T08:33:08.734Z,4.70
2023-04-02T08:36:01.875Z,4.70
2023-04-02T08:38:55.969Z,3.70
2023-04-02T08:41:59.802Z,3.80
2023-04-02T08:45:21.285Z,4.30
2023-04-02T08:48:18.704Z,3.80
2023-04-02T08:51:24.206Z,3.60
2023-04-02T08:54:23.078Z,3.40
2023-04-02T08:57:17.021Z,3.40
2023-04-02T08:59:55.644Z,3.90
2023-04-02T09:02:36.397Z,3.70
2023-04-02T09:05:24.517Z,3.80
2023-04-02T09:08:22.166Z,3.90
2023-04-02T09:11:11.177Z,4.10
2023-04-02T09:14:08.473Z,4.90
2023-04-02T09:16:49.905Z,4.80
2023-04-02T09:19:46.203Z,5.70
2023-04-02T09:22:24.878Z,5.80
2023-04-02T09:25:21.069Z,6.50
2023-04-02T09:28:15.842Z,6.20
2023-04-02T09:31:20.891Z,6.00
2023-04-02T09:33:54.850Z,9.30
2023-04-02T09:36:39.352Z,9.60
2023-04-02T09:39:21.852Z,9.30
2023-04-02T09:42:05.513Z,8.50
2023-04-02T09:44:41.978Z,9.10
2023-04-02T09:47:28.906Z,8.50
2023-04-02T09:50:25.290Z,8.90
2023-04-02T09:53:00.174Z,7.70
2023-04-02T09:55:35.529Z,6.40
2023-04-02T10:00:56.441Z,7.10
2023-04-02T10:03:33.145Z,4.60
2023-04-02T10:06:18.449Z,4.70
2023-04-02T10:08:52.011Z,4.90
2023-04-02T10:11:46.115Z,5.70
2023-04-02T10:14:35.746Z,5.50
2023-04-02T10:17:17.459Z,7.20
2023-04-02T10:20:09.566Z,7.60
2023-04-02T10:22:47.243Z,5.80
2023-04-02T10:25:26.635Z,5.80
2023-04-02T10:28:38.572Z,7.70
2023-04-02T10:31:27.634Z,9.70
2023-04-02T10:34:09.365Z,8.00
2023-04-02T10:36:51.550Z,8.80
2023-04-02T10:39:35.557Z,8.50
2023-04-02T10:42:18.446Z,8.10
2023-04-02T10:44:58.465Z,7.60
2023-04-02T10:47:39.465Z,8.00
2023-04-02T10:50:34.219Z,8.70
2023-04-02T10:53:16.128Z,7.60
2023-04-02T10:56:08.197Z,7.90
2023-04-02T10:59:05.570Z,8.10
2023-04-02T11:01:45.219Z,7.10
2023-04-02T11:04:23.700Z,6.70
2023-04-02T11:07:13.883Z,7.30
2023-04-02T11:09:55.015Z,7.60
2023-04-02T11:12:42.011Z,8.10
2023-04-02T11:15:21.169Z,7.90
2023-04-02T11:18:06.184Z,9.70
2023-04-02T11:21:02.309Z,9.70
2023-04-02T11:23:40.934Z,8.20
2023-04-02T11:26:43.129Z,7.20
2023-04-02T11:29:23.851Z,8.20
2023-04-02T11:32:36.791Z,13.40
2023-04-02T11:35:28.369Z,11.40
2023-04-02T11:38:25.642Z,10.30
2023-04-02T11:41:04.014Z,8.80
2023-04-02T11:44:01.137Z,10.40
2023-04-02T11:46:50.924Z,12.00
2023-04-02T11:50:02.724Z,7.60
2023-04-02T11:52:55.962Z,7.40
2023-04-02T11:55:34.290Z,7.20
2023-04-02T11:58:38.462Z,6.80
2023-04-02T12:01:58.891Z,5.40
2023-04-02T12:04:58.002Z,6.00
2023-04-02T12:07:58.131Z,6.10
2023-04-02T12:10:57.776Z,12.60
2023-04-02T12:13:58.597Z,5.20
2023-04-02T12:16:38.953Z,5.70
2023-04-02T12:19:19.812Z,9.60
2023-04-02T12:21:56.685Z,41.70
2023-04-02T12:24:33.434Z,14.40
2023-04-02T12:27:23.597Z,4.90
2023-04-02T12:30:20.848Z,11.60
2023-04-02T12:33:31.033Z,14.10
2023-04-02T12:36:24.748Z,7.30
2023-04-02T12:39:19.849Z,5.20
2023-04-02T12:42:30.803Z,4.20
2023-04-02T12:45:29.686Z,4.40
2023-04-02T12:51:17.194Z,5.90
2023-04-02T12:53:54.984Z,6.90
2023-04-02T12:56:47.204Z,6.30
2023-04-02T12:59:40.098Z,6.20
2023-04-02T13:02:26.583Z,6.20
2023-04-02T13:05:36.660Z,5.10
2023-04-02T13:08:33.268Z,4.20
2023-04-02T13:11:19.441Z,4.60
2023-04-02T13:14:21.348Z,5.60
2023-04-02T13:17:27.150Z,6.30
2023-04-02T13:20:37.517Z,4.20
2023-04-02T13:23:38.956Z,5.20
2023-04-02T13:26:34.553Z,4.10
2023-04-02T13:29:30.393Z,4.50
2023-04-02T13:32:23.975Z,6.10
2023-04-02T13:35:08.136Z,5.30
2023-04-02T13:38:04.267Z,5.80
2023-04-02T13:40:49.812Z,7.30
2023-04-02T13:43:36.081Z,13.00
2023-04-02T13:46:31.506Z,11.40
2023-04-02T13:49:07.441Z,8.40
2023-04-02T13:51:53.068Z,5.40
2023-04-02T13:54:48.921Z,4.90
2023-04-02T13:57:43.395Z,3.70
2023-04-02T14:00:37.822Z,3.80
2023-04-02T14:03:34.602Z,6.30
2023-04-02T14:06:37.438Z,8.50
2023-04-02T14:09:41.445Z,7.70
2023-04-02T14:12:48.981Z,8.20
2023-04-02T14:15:57.259Z,10.80
2023-04-02T14:21:55.608Z,10.60
2023-04-02T14:24:58.115Z,10.70
2023-04-02T14:27:49.314Z,6.00
2023-04-02T14:30:43.466Z,6.90
2023-04-02T14:33:46.317Z,28.60
2023-04-02T14:36:49.937Z,12.80
2023-04-02T14:39:45.924Z,7.20
2023-04-02T14:42:46.053Z,7.10
2023-04-02T14:45:41.595Z,7.00
2023-04-02T14:48:42.964Z,6.00
2023-04-02T14:51:33.558Z,5.10
2023-04-02T14:57:21.671Z,5.60
2023-04-02T15:00:30.835Z,6.90
2023-04-02T15:03:27.770Z,5.90
2023-04-02T15:06:25.924Z,4.50
2023-04-02T15:09:33.553Z,6.00
2023-04-02T15:12:24.083Z,6.00
2023-04-02T15:15:24.328Z,6.10
2023-04-02T15:18:17.102Z,7.00
2023-04-02T15:21:29.695Z,7.80
2023-04-02T15:24:28.874Z,7.30
2023-04-02T15:27:23.911Z,7.20
2023-04-02T15:30:22.192Z,9.10
2023-04-02T15:33:47.038Z,9.30
2023-04-02T15:36:57.872Z,9.50
2023-04-02T15:40:20.785Z,9.90
2023-04-02T15:43:22.382Z,9.90
2023-04-02T15:46:23.010Z,8.90
2023-04-02T15:49:35.340Z,9.60
2023-04-02T15:52:24.529Z,10.30
2023-04-02T15:55:28.012Z,11.80
2023-04-02T15:58:35.625Z,10.90
2023-04-02T16:01:55.477Z,14.90
2023-04-02T16:04:56.289Z,11.10
2023-04-02T16:08:37.525Z,9.80
2023-04-02T16:11:17.151Z,11.00
2023-04-02T16:14:23.442Z,9.70
2023-04-02T16:17:24.949Z,7.90
2023-04-02T16:20:24.118Z,6.50
2023-04-02T16:23:13.944Z,6.80
2023-04-02T16:26:04.781Z,5.30
2023-04-02T16:29:12.915Z,5.60
2023-04-02T16:32:36.131Z,7.10
2023-04-02T16:35:43.590Z,5.60
2023-04-02T16:38:42.080Z,5.60
2023-04-02T16:41:37.443Z,6.10
2023-04-02T16:44:39.470Z,6.20
2023-04-02T16:47:41.889Z,5.40
2023-04-02T16:50:46.100Z,7.20
2023-04-02T16:54:00.959Z,6.70
2023-04-02T16:57:10.731Z,7.00
2023-04-02T17:00:02.521Z,7.00
2023-04-02T17:03:22.278Z,7.00
2023-04-02T17:06:06.171Z,6.90
2023-04-02T17:08:55.416Z,6.90
2023-04-02T17:11:53.404Z,7.90
2023-04-02T17:14:52.484Z,8.60
2023-04-02T17:17:28.598Z,6.40
2023-04-02T17:20:27.214Z,6.80
2023-04-02T17:26:10.535Z,10.00
2023-04-02T17:28:46.105Z,8.20
2023-04-02T17:31:23.396Z,7.80
2023-04-02T17:34:01.068Z,8.20
2023-04-02T17:36:49.207Z,8.80
2023-04-02T17:39:32.621Z,8.00
2023-04-02T17:42:22.382Z,7.90
2023-04-02T17:45:14.993Z,8.70
2023-04-02T17:47:57.792Z,13.80
2023-04-02T17:51:02.618Z,9.60
2023-04-02T17:53:51.383Z,14.70
2023-04-02T17:56:53.033Z,10.60
2023-04-02T18:00:02.588Z,13.40
2023-04-02T18:03:00.383Z,7.50
2023-04-02T18:05:43.943Z,8.20
2023-04-02T18:08:26.065Z,14.80
2023-04-02T18:11:29.743Z,12.60
2023-04-02T18:14:17.587Z,8.80
2023-04-02T18:16:58.672Z,10.40
2023-04-02T18:19:56.046Z,7.90
2023-04-02T18:22:38.499Z,7.70
2023-04-02T18:25:54.514Z,12.50
2023-04-02T18:28:59.417Z,7.30
2023-04-02T18:31:41.237Z,11.60
2023-04-02T18:34:56.744Z,7.60
2023-04-02T18:38:03.669Z,7.70
2023-04-02T18:41:02.938Z,7.10
2023-04-02T18:44:01.203Z,7.30
2023-04-02T18:46:56.559Z,8.30
2023-04-02T18:49:58.443Z,17.40
2023-04-02T18:52:43.138Z,19.20
2023-04-02T18:55:37.262Z,12.00
2023-04-02T18:58:22.313Z,13.50
2023-04-02T19:01:19.948Z,10.60
2023-04-02T19:04:19.093Z,9.50
2023-04-02T19:07:16.665Z,7.90
2023-04-02T19:10:06.030Z,7.70
2023-04-02T19:12:59.361Z,6.90
2023-04-02T19:16:18.726Z,7.30
2023-04-02T19:19:19.892Z,6.90
2023-04-02T19:22:19.311Z,7.00
2023-04-02T19:25:36.112Z,8.50
2023-04-02T19:28:35.507Z,7.30
2023-04-02T19:31:44.887Z,9.30
2023-04-02T19:34:44.569Z,9.10
2023-04-02T19:37:42.616Z,7.50
2023-04-02T19:40:37.566Z,6.90
2023-04-02T19:43:32.961Z,6.80
2023-04-02T19:46:27.490Z,7.10
2023-04-02T19:49:10.033Z,5.80
2023-04-02T19:51:46.171Z,8.30
2023-04-02T19:54:21.964Z,8.70
2023-04-02T19:56:58.576Z,7.70
2023-04-02T19:59:31.581Z,7.40
2023-04-02T20:02:24.675Z,7.30
2023-04-02T20:05:18.049Z,7.70
2023-04-02T20:08:10.933Z,7.00
2023-04-02T20:11:05.980Z,7.90
2023-04-02T20:13:53.910Z,7.00
2023-04-02T20:16:46.777Z,7.10
2023-04-02T20:19:38.680Z,6.10
2023-04-02T20:22:31.785Z,7.00
2023-04-02T20:25:24.561Z,6.70
2023-04-02T20:28:17.714Z,7.10
2023-04-02T20:31:09.341Z,6.70
2023-04-02T20:33:55.786Z,6.80
2023-04-02T20:36:34.616Z,6.70
2023-04-02T20:39:09.282Z,7.20
2023-04-02T20:42:17.515Z,6.80
2023-04-02T20:45:08.632Z,7.40
2023-04-02T20:47:52.552Z,7.80
2023-04-02T20:50:38.783Z,7.80
2023-04-02T20:56:36.928Z,8.30
2023-04-02T20:59:31.545Z,8.00
2023-04-02T21:02:24.677Z,7.20
2023-04-02T21:05:19.200Z,7.00
2023-04-02T21:08:12.700Z,7.10
2023-04-02T21:11:08.831Z,5.70
2023-04-02T21:14:02.081Z,4.70
2023-04-02T21:16:55.662Z,5.10
2023-04-02T21:19:48.873Z,5.30
2023-04-02T21:22:40.890Z,6.00
2023-04-02T21:25:34.566Z,6.90
2023-04-02T21:28:28.252Z,7.60
2023-04-02T21:31:23.054Z,7.70
2023-04-02T21:34:18.716Z,8.00
2023-04-02T21:37:10.251Z,8.40
2023-04-02T21:40:03.303Z,8.20
2023-04-02T21:42:57.650Z,8.80
2023-04-02T21:45:50.658Z,9.00
2023-04-02T21:48:36.600Z,8.50
2023-04-02T21:51:31.451Z,10.40
2023-04-02T21:54:24.144Z,12.10
2023-04-02T21:57:18.978Z,11.90
2023-04-02T22:00:13.884Z,8.30
2023-04-02T22:03:06.605Z,8.40
2023-04-02T22:06:01.032Z,9.80
2023-04-02T22:08:57.573Z,6.70
2023-04-02T22:11:54.122Z,7.20
2023-04-02T22:14:46.717Z,7.20
2023-04-02T22:17:41.528Z,6.60
2023-04-02T22:20:34.601Z,6.80
2023-04-02T22:23:07.500Z,4.80
2023-04-02T22:26:01.522Z,4.70
2023-04-02T22:28:34.703Z,4.20
2023-04-02T22:31:22.793Z,4.90
2023-04-02T22:34:06.899Z,4.50
2023-04-02T22:36:59.494Z,4.30
2023-04-02T22:39:52.017Z,4.50
2023-04-02T22:42:35.947Z,4.00
2023-04-02T22:45:21.404Z,5.00
2023-04-02T22:47:54.135Z,4.10
2023-04-02T22:50:52.936Z,4.30
2023-04-02T22:53:47.308Z,4.60
2023-04-02T22:56:40.005Z,4.60
2023-04-02T22:59:25.781Z,4.70
2023-04-02T23:02:08.475Z,4.30
2023-04-02T23:05:01.902Z,4.30
2023-04-02T23:07:54.770Z,4.90
2023-04-02T23:10:37.504Z,4.50
2023-04-02T23:13:30.595Z,4.20
2023-04-02T23:16:27.048Z,4.60
2023-04-02T23:19:19.816Z,4.60
2023-04-02T23:22:12.690Z,4.90
2023-04-02T23:25:05.735Z,4.50
2023-04-02T23:27:52.385Z,4.40
2023-04-02T23:30:46.070Z,5.10
2023-04-02T23:33:38.860Z,5.00
2023-04-02T23:39:12.729Z,4.90
2023-04-02T23:42:05.693Z,5.00
2023-04-02T23:44:43.184Z,4.70
2023-04-02T23:47:36.290Z,5.00
2023-04-02T23:50:30.655Z,4.60
2023-04-02T23:53:14.717Z,4.50
2023-04-02T23:55:50.313Z,5.00
2023-04-02T23:58:43.361Z,4.00
